createdAt,value
2023-04-27T00:01:44.392Z,101573.03
2023-04-27T00:04:30.132Z,101568.72
2023-04-27T00:07:15.676Z,101546.31
2023-04-27T00:10:01.009Z,101563.63
2023-04-27T00:12:46.755Z,101563.75
2023-04-27T00:15:32.213Z,101570.69
2023-04-27T00:18:17.944Z,101567.28
2023-04-27T00:21:03.334Z,101573.44
2023-04-27T00:23:48.601Z,101566.56
2023-04-27T00:26:34.257Z,101574.28
2023-04-27T00:29:19.649Z,101565.63
2023-04-27T00:32:05.053Z,101566.53
2023-04-27T00:34:50.441Z,101575.28
2023-04-27T00:37:36.661Z,101551.19
2023-04-27T00:40:21.974Z,101564.97
2023-04-27T00:43:07.524Z,101547.72
2023-04-27T00:45:53.229Z,101563.19
2023-04-27T00:48:39.248Z,101570.19
2023-04-27T00:51:28.059Z,101573.72
2023-04-27T00:54:15.612Z,101570.34
2023-04-27T00:57:01.235Z,101557.47
2023-04-27T00:59:47.158Z,101557.56
2023-04-27T01:02:32.950Z,101575.63
2023-04-27T01:05:19.220Z,101577.38
2023-04-27T01:08:05.265Z,101577.50
2023-04-27T01:10:50.644Z,101574.97
2023-04-27T01:13:36.476Z,101563.78
2023-04-27T01:16:22.037Z,101574.16
2023-04-27T01:19:08.675Z,101575.91
2023-04-27T01:21:54.691Z,101565.66
2023-04-27T01:24:40.984Z,101574.28
2023-04-27T01:27:26.464Z,101582.88
2023-04-27T01:30:12.125Z,101583.81
2023-04-27T01:32:57.481Z,101582.06
2023-04-27T01:35:43.183Z,101574.34
2023-04-27T01:38:28.642Z,101585.63
2023-04-27T01:41:14.097Z,101587.41
2023-04-27T01:43:59.553Z,101579.59
2023-04-27T01:46:45.216Z,101578.75
2023-04-27T01:49:30.564Z,101595.09
2023-04-27T01:52:16.378Z,101587.34
2023-04-27T01:55:01.780Z,101588.25
2023-04-27T01:57:47.414Z,101599.50
2023-04-27T02:00:33.318Z,101609.91
2023-04-27T02:03:18.947Z,101609.06
2023-04-27T02:06:04.924Z,101614.22
2023-04-27T02:08:50.344Z,101613.41
2023-04-27T02:11:35.881Z,101619.44
2023-04-27T02:14:21.380Z,101610.84
2023-04-27T02:17:06.802Z,101621.16
2023-04-27T02:19:52.313Z,101631.53
2023-04-27T02:22:44.420Z,101629.81
2023-04-27T02:25:30.418Z,101626.41
2023-04-27T02:28:15.810Z,101622.91
2023-04-27T02:31:01.974Z,101638.38
2023-04-27T02:33:47.675Z,101628.94
2023-04-27T02:36:33.062Z,101630.72
2023-04-27T02:39:18.478Z,101637.63
2023-04-27T02:42:03.985Z,101626.44
2023-04-27T02:44:49.458Z,101652.31
2023-04-27T02:47:35.348Z,101648.88
2023-04-27T02:50:21.359Z,101635.09
2023-04-27T02:53:07.070Z,101641.13
2023-04-27T02:55:52.468Z,101637.72
2023-04-27T02:58:38.204Z,101638.56
2023-04-27T03:01:23.576Z,101642.03
2023-04-27T03:04:09.143Z,101635.13
2023-04-27T03:06:55.104Z,101637.72
2023-04-27T03:09:40.651Z,101640.31
2023-04-27T03:12:26.396Z,101638.53
2023-04-27T03:15:11.816Z,101628.19
2023-04-27T03:17:57.569Z,101642.88
2023-04-27T03:20:43.259Z,101646.34
2023-04-27T03:23:28.803Z,101650.66
2023-04-27T03:26:14.938Z,101626.53
2023-04-27T03:29:00.921Z,101648.13
2023-04-27T03:31:46.550Z,101645.53
2023-04-27T03:34:32.115Z,101656.78
2023-04-27T03:37:17.556Z,101645.56
2023-04-27T03:40:07.185Z,101657.63
2023-04-27T03:42:52.581Z,101654.16
2023-04-27T03:45:38.101Z,101657.59
2023-04-27T03:48:23.789Z,101645.56
2023-04-27T03:51:09.465Z,101660.22
2023-04-27T03:53:54.921Z,101655.94
2023-04-27T03:56:40.919Z,101661.09
2023-04-27T03:59:29.169Z,101666.28
2023-04-27T04:02:15.120Z,101668.84
2023-04-27T04:05:00.747Z,101661.97
2023-04-27T04:07:46.367Z,101668.03
2023-04-27T04:10:31.831Z,101671.44
2023-04-27T04:13:17.583Z,101680.06
2023-04-27T04:16:09.994Z,101671.47
2023-04-27T04:18:55.459Z,101677.47
2023-04-27T04:21:41.211Z,101669.69
2023-04-27T04:24:26.527Z,101671.41
2023-04-27T04:27:12.153Z,101678.28
2023-04-27T04:30:00.183Z,101677.44
2023-04-27T04:32:45.584Z,101675.69
2023-04-27T04:35:33.003Z,101686.91
2023-04-27T04:38:18.472Z,101680.03
2023-04-27T04:41:04.004Z,101686.03
2023-04-27T04:43:49.493Z,101692.06
2023-04-27T04:46:37.224Z,101676.53
2023-04-27T04:49:22.768Z,101690.34
2023-04-27T04:52:08.464Z,101680.84
2023-04-27T04:54:53.737Z,101698.09
2023-04-27T04:57:39.474Z,101693.75
2023-04-27T05:00:24.914Z,101699.75
2023-04-27T05:03:10.439Z,101692.81
2023-04-27T05:05:56.021Z,101696.25
2023-04-27T05:08:41.370Z,101702.28
2023-04-27T05:11:26.852Z,101708.28
2023-04-27T05:14:12.458Z,101700.47
2023-04-27T05:16:58.200Z,101696.97
2023-04-27T05:19:43.999Z,101701.22
2023-04-27T05:22:29.364Z,101710.56
2023-04-27T05:25:15.104Z,101715.63
2023-04-27T05:28:01.072Z,101709.22
2023-04-27T05:30:46.502Z,101710.88
2023-04-27T05:33:31.873Z,101704.13
2023-04-27T05:36:17.176Z,101705.47
2023-04-27T05:39:03.395Z,101712.75
2023-04-27T05:41:49.221Z,101708.13
2023-04-27T05:44:34.842Z,101707.25
2023-04-27T05:47:20.192Z,101713.44
2023-04-27T05:50:06.215Z,101704.94
2023-04-27T05:52:51.660Z,101707.69
2023-04-27T05:55:38.184Z,101713.91
2023-04-27T05:58:23.477Z,101720.19
2023-04-27T06:01:09.108Z,101715.00
2023-04-27T06:03:55.420Z,101713.06
2023-04-27T06:06:40.968Z,101718.94
2023-04-27T06:09:27.614Z,101717.31
2023-04-27T06:12:12.793Z,101712.25
2023-04-27T06:14:58.623Z,101710.66
2023-04-27T06:17:44.534Z,101708.03
2023-04-27T06:20:29.936Z,101702.63
2023-04-27T06:23:15.622Z,101705.66
2023-04-27T06:26:02.412Z,101706.53
2023-04-27T06:28:48.236Z,101714.91
2023-04-27T06:31:34.474Z,101712.53
2023-04-27T06:34:19.874Z,101719.94
2023-04-27T06:37:05.457Z,101706.88
2023-04-27T06:39:51.306Z,101708.94
2023-04-27T06:42:36.975Z,101705.88
2023-04-27T06:45:22.787Z,101715.72
2023-04-27T06:48:08.106Z,101713.53
2023-04-27T06:50:53.880Z,101705.31
2023-04-27T06:53:39.764Z,101721.25
2023-04-27T06:56:25.186Z,101715.19
2023-04-27T06:59:11.630Z,101712.47
2023-04-27T07:01:57.263Z,101712.19
2023-04-27T07:04:43.384Z,101717.06
2023-04-27T07:07:28.825Z,101719.22
2023-04-27T07:10:14.525Z,101723.50
2023-04-27T07:12:59.948Z,101706.41
2023-04-27T07:15:45.573Z,101713.63
2023-04-27T07:18:30.926Z,101694.94
2023-04-27T07:21:16.243Z,101705.50
2023-04-27T07:24:01.972Z,101717.75
2023-04-27T07:26:48.020Z,101721.44
2023-04-27T07:29:34.363Z,101730.25
2023-04-27T07:32:20.112Z,101739.09
2023-04-27T07:35:05.864Z,101730.16
2023-04-27T07:37:52.134Z,101737.00
2023-04-27T07:40:37.823Z,101726.88
2023-04-27T07:43:25.610Z,101733.22
2023-04-27T07:46:11.804Z,101744.56
2023-04-27T07:48:59.678Z,101746.75
2023-04-27T07:51:45.466Z,101746.94
2023-04-27T07:54:30.899Z,101752.69
2023-04-27T07:57:16.482Z,101742.28
2023-04-27T08:00:03.882Z,101746.69
2023-04-27T08:02:50.595Z,101739.16
2023-04-27T08:05:36.505Z,101730.34
2023-04-27T08:08:22.774Z,101745.63
2023-04-27T08:11:11.950Z,101738.84
2023-04-27T08:13:57.664Z,101732.66
2023-04-27T08:16:44.207Z,101733.38
2023-04-27T08:19:30.119Z,101725.09
2023-04-27T08:22:16.213Z,101733.81
2023-04-27T08:25:03.830Z,101723.91
2023-04-27T08:27:49.408Z,101722.81
2023-04-27T08:30:35.503Z,101716.28
2023-04-27T08:33:21.288Z,101727.97
2023-04-27T08:36:08.053Z,101712.97
2023-04-27T08:38:54.029Z,101714.69
2023-04-27T08:41:42.581Z,101709.94
2023-04-27T08:44:28.226Z,101708.88
2023-04-27T08:47:13.663Z,101708.91
2023-04-27T08:49:59.002Z,101703.44
2023-04-27T08:52:46.132Z,101704.47
2023-04-27T08:55:31.556Z,101701.84
2023-04-27T08:58:17.219Z,101700.44
2023-04-27T09:01:09.590Z,101709.75
2023-04-27T09:04:00.429Z,101708.00
2023-04-27T09:06:46.482Z,101712.03
2023-04-27T09:09:31.785Z,101711.25
2023-04-27T09:12:18.857Z,101723.41
2023-04-27T09:15:06.100Z,101716.84
2023-04-27T09:17:58.569Z,101712.25
2023-04-27T09:20:45.216Z,101705.84
2023-04-27T09:23:36.351Z,101699.13
2023-04-27T09:26:27.405Z,101698.91
2023-04-27T09:29:13.267Z,101707.63
2023-04-27T09:31:59.050Z,101705.69
2023-04-27T09:34:45.228Z,101703.16
2023-04-27T09:37:32.249Z,101718.19
2023-04-27T09:40:19.077Z,101711.69
2023-04-27T09:43:04.462Z,101711.69
2023-04-27T09:45:50.729Z,101706.22
2023-04-27T09:48:38.730Z,101702.44
2023-04-27T09:51:24.469Z,101693.59
2023-04-27T09:54:13.391Z,101691.78
2023-04-27T09:57:17.333Z,101687.53
2023-04-27T10:00:17.662Z,101696.94
2023-04-27T10:03:25.027Z,101690.53
2023-04-27T10:06:37.681Z,101696.56
2023-04-27T10:09:23.642Z,101689.06
2023-04-27T10:12:27.177Z,101685.19
2023-04-27T10:15:17.390Z,101684.69
2023-04-27T10:18:06.050Z,101688.88
2023-04-27T10:20:52.685Z,101692.72
2023-04-27T10:23:46.891Z,101694.84
2023-04-27T10:26:32.991Z,101685.19
2023-04-27T10:29:20.417Z,101682.63
2023-04-27T10:32:11.359Z,101691.66
2023-04-27T10:35:08.884Z,101690.34
2023-04-27T10:38:06.120Z,101679.41
2023-04-27T10:40:57.051Z,101671.31
2023-04-27T10:43:42.517Z,101685.31
2023-04-27T10:46:27.710Z,101682.72
2023-04-27T10:49:16.635Z,101686.59
2023-04-27T10:52:04.849Z,101689.41
2023-04-27T10:54:50.583Z,101679.50
2023-04-27T10:57:46.208Z,101668.69
2023-04-27T11:00:44.670Z,101659.06
2023-04-27T11:03:30.786Z,101660.97
2023-04-27T11:06:17.429Z,101666.00
2023-04-27T11:09:02.971Z,101671.50
2023-04-27T11:11:48.478Z,101672.38
2023-04-27T11:14:37.976Z,101671.38
2023-04-27T11:17:30.157Z,101661.31
2023-04-27T11:20:24.573Z,101660.66
2023-04-27T11:23:12.408Z,101656.31
2023-04-27T11:25:58.051Z,101665.75
2023-04-27T11:28:44.902Z,101659.50
2023-04-27T11:31:43.205Z,101648.00
2023-04-27T11:34:34.206Z,101660.41
2023-04-27T11:37:24.760Z,101671.53
2023-04-27T11:40:14.434Z,101677.41
2023-04-27T11:43:03.104Z,101672.91
2023-04-27T11:45:48.452Z,101667.56
2023-04-27T11:48:37.433Z,101669.88
2023-04-27T11:51:24.717Z,101665.47
2023-04-27T11:54:10.420Z,101659.56
2023-04-27T11:57:05.796Z,101660.38
2023-04-27T11:59:51.997Z,101650.22
2023-04-27T12:02:37.722Z,101647.66
2023-04-27T12:05:23.361Z,101650.94
2023-04-27T12:08:09.006Z,101640.53
2023-04-27T12:10:55.800Z,101652.00
2023-04-27T12:13:41.321Z,101656.28
2023-04-27T12:16:26.853Z,101652.19
2023-04-27T12:19:12.375Z,101639.66
2023-04-27T12:21:58.139Z,101635.69
2023-04-27T12:24:43.476Z,101651.75
2023-04-27T12:27:28.986Z,101632.72
2023-04-27T12:30:14.861Z,101654.72
2023-04-27T12:33:00.851Z,101648.38
2023-04-27T12:35:46.476Z,101655.69
2023-04-27T12:38:32.677Z,101642.50
2023-04-27T12:41:18.068Z,101649.28
2023-04-27T12:44:04.351Z,101663.47
2023-04-27T12:46:50.464Z,101663.31
2023-04-27T12:49:36.413Z,101652.91
2023-04-27T12:52:21.840Z,101648.97
2023-04-27T12:55:10.967Z,101655.91
2023-04-27T12:58:03.214Z,101656.63
2023-04-27T13:00:48.849Z,101655.41
2023-04-27T13:03:34.275Z,101656.22
2023-04-27T13:06:20.659Z,101644.59
2023-04-27T13:09:06.952Z,101648.75
2023-04-27T13:11:54.031Z,101653.59
2023-04-27T13:14:40.049Z,101652.69
2023-04-27T13:17:25.900Z,101650.63
2023-04-27T13:20:12.015Z,101645.09
2023-04-27T13:22:57.484Z,101655.47
2023-04-27T13:25:43.205Z,101653.19
2023-04-27T13:28:28.580Z,101650.56
2023-04-27T13:31:14.127Z,101660.03
2023-04-27T13:34:01.161Z,101641.13
2023-04-27T13:36:47.281Z,101655.31
2023-04-27T13:39:34.246Z,101656.84
2023-04-27T13:42:19.639Z,101648.28
2023-04-27T13:45:06.526Z,101632.47
2023-04-27T13:47:51.962Z,101631.25
2023-04-27T13:50:37.803Z,101629.06
2023-04-27T13:53:26.937Z,101637.56
2023-04-27T13:56:12.510Z,101630.94
2023-04-27T13:58:58.224Z,101634.56
2023-04-27T14:01:44.026Z,101634.47
2023-04-27T14:04:29.948Z,101629.28
2023-04-27T14:07:15.616Z,101629.66
2023-04-27T14:10:01.624Z,101624.03
2023-04-27T14:12:47.457Z,101621.44
2023-04-27T14:15:36.901Z,101630.53
2023-04-27T14:18:27.483Z,101613.59
2023-04-27T14:21:16.977Z,101624.69
2023-04-27T14:24:02.405Z,101627.25
2023-04-27T14:26:48.799Z,101616.09
2023-04-27T14:29:34.395Z,101616.16
2023-04-27T14:32:19.757Z,101619.03
2023-04-27T14:35:05.641Z,101626.75
2023-04-27T14:37:52.683Z,101623.63
2023-04-27T14:40:38.123Z,101616.50
2023-04-27T14:43:23.596Z,101614.50
2023-04-27T14:46:20.335Z,101620.22
2023-04-27T14:49:06.901Z,101615.13
2023-04-27T14:54:32.637Z,101605.66
2023-04-27T14:57:17.852Z,101589.38
2023-04-27T15:00:09.600Z,101604.03
2023-04-27T15:02:54.987Z,101609.59
2023-04-27T15:05:40.742Z,101604.06
2023-04-27T15:08:26.298Z,101606.28
2023-04-27T15:11:11.604Z,101610.66
2023-04-27T15:13:57.222Z,101609.44
2023-04-27T15:16:42.549Z,101605.69
2023-04-27T15:19:28.235Z,101608.59
2023-04-27T15:22:16.454Z,101605.19
2023-04-27T15:25:02.248Z,101608.00
2023-04-27T15:27:47.907Z,101601.31
2023-04-27T15:30:34.601Z,101590.09
2023-04-27T15:33:20.353Z,101596.38
2023-04-27T15:36:05.787Z,101607.19
2023-04-27T15:38:51.918Z,101602.50
2023-04-27T15:41:37.370Z,101595.25
2023-04-27T15:44:23.145Z,101599.84
2023-04-27T15:47:08.719Z,101598.41
2023-04-27T15:49:57.952Z,101597.78
2023-04-27T15:52:44.002Z,101598.47
2023-04-27T15:55:29.835Z,101595.22
2023-04-27T15:58:16.024Z,101600.44
2023-04-27T16:01:01.595Z,101594.38
2023-04-27T16:03:47.042Z,101579.16
2023-04-27T16:06:34.333Z,101588.97
2023-04-27T16:09:20.195Z,101580.38
2023-04-27T16:12:06.184Z,101575.44
2023-04-27T16:14:56.912Z,101577.31
2023-04-27T16:17:42.286Z,101586.31
2023-04-27T16:20:30.470Z,101586.03
2023-04-27T16:23:16.966Z,101581.69
2023-04-27T16:26:02.661Z,101582.06
2023-04-27T16:28:48.245Z,101583.94
2023-04-27T16:31:33.838Z,101581.28
2023-04-27T16:34:19.213Z,101573.75
2023-04-27T16:37:05.113Z,101581.81
2023-04-27T16:39:50.988Z,101575.41
2023-04-27T16:42:36.469Z,101582.25
2023-04-27T16:45:22.092Z,101576.91
2023-04-27T16:48:10.287Z,101583.88
2023-04-27T16:50:56.526Z,101581.31
2023-04-27T16:53:42.163Z,101580.41
2023-04-27T16:56:29.644Z,101578.59
2023-04-27T16:59:15.412Z,101578.88
2023-04-27T17:02:12.526Z,101574.88
2023-04-27T17:05:07.216Z,101580.69
2023-04-27T17:07:53.134Z,101578.91
2023-04-27T17:10:38.577Z,101580.78
2023-04-27T17:13:25.136Z,101579.41
2023-04-27T17:16:13.174Z,101586.78
2023-04-27T17:18:58.671Z,101588.41
2023-04-27T17:21:44.405Z,101594.72
2023-04-27T17:24:30.081Z,101596.91
2023-04-27T17:27:15.681Z,101591.31
2023-04-27T17:30:01.211Z,101598.00
2023-04-27T17:32:46.746Z,101583.25
2023-04-27T17:35:32.068Z,101589.59
2023-04-27T17:38:17.700Z,101595.47
2023-04-27T17:41:03.057Z,101590.00
2023-04-27T17:43:49.900Z,101584.41
2023-04-27T17:46:37.118Z,101590.78
2023-04-27T17:49:23.161Z,101585.69
2023-04-27T17:52:09.381Z,101587.00
2023-04-27T17:54:56.068Z,101582.22
2023-04-27T17:57:41.671Z,101572.25
2023-04-27T18:00:27.352Z,101572.25
2023-04-27T18:03:13.155Z,101569.81
2023-04-27T18:05:59.417Z,101566.59
2023-04-27T18:08:44.979Z,101570.44
2023-04-27T18:11:30.506Z,101570.03
2023-04-27T18:14:16.286Z,101568.00
2023-04-27T18:17:01.894Z,101578.72
2023-04-27T18:19:48.039Z,101576.94
2023-04-27T18:22:39.241Z,101578.44
2023-04-27T18:25:25.360Z,101577.97
2023-04-27T18:28:10.996Z,101575.19
2023-04-27T18:30:56.350Z,101583.56
2023-04-27T18:33:42.565Z,101590.28
2023-04-27T18:36:28.429Z,101592.53
2023-04-27T18:39:14.102Z,101578.19
2023-04-27T18:41:59.929Z,101587.75
2023-04-27T18:44:45.286Z,101591.63
2023-04-27T18:47:31.110Z,101585.81
2023-04-27T18:50:17.404Z,101585.25
2023-04-27T18:53:02.869Z,101572.28
2023-04-27T18:55:48.851Z,101590.59
2023-04-27T18:58:34.379Z,101590.81
2023-04-27T19:01:24.816Z,101597.09
2023-04-27T19:04:10.545Z,101595.50
2023-04-27T19:06:56.415Z,101598.19
2023-04-27T19:09:42.278Z,101603.19
2023-04-27T19:12:27.715Z,101608.22
2023-04-27T19:15:13.885Z,101612.81
2023-04-27T19:18:07.130Z,101608.59
2023-04-27T19:20:57.965Z,101610.53
2023-04-27T19:23:45.083Z,101615.31
2023-04-27T19:26:30.923Z,101613.25
2023-04-27T19:29:16.893Z,101619.28
2023-04-27T19:32:02.981Z,101617.75
2023-04-27T19:34:48.685Z,101617.88
2023-04-27T19:37:34.451Z,101612.72
2023-04-27T19:40:20.363Z,101619.63
2023-04-27T19:43:06.994Z,101611.69
2023-04-27T19:45:55.872Z,101606.59
2023-04-27T19:48:42.486Z,101615.13
2023-04-27T19:51:29.223Z,101610.69
2023-04-27T19:54:14.843Z,101606.25
2023-04-27T19:57:01.122Z,101598.34
2023-04-27T19:59:46.379Z,101600.25
2023-04-27T20:02:31.899Z,101601.28
2023-04-27T20:05:17.900Z,101603.94
2023-04-27T20:08:03.560Z,101607.78
2023-04-27T20:10:49.027Z,101604.50
2023-04-27T20:13:34.446Z,101597.94
2023-04-27T20:16:21.404Z,101600.13
2023-04-27T20:19:06.899Z,101594.31
2023-04-27T20:21:52.202Z,101602.69
2023-04-27T20:24:38.543Z,101597.19
2023-04-27T20:27:24.123Z,101588.69
2023-04-27T20:30:09.813Z,101586.22
2023-04-27T20:32:56.384Z,101593.19
2023-04-27T20:35:42.677Z,101601.69
2023-04-27T20:38:28.017Z,101584.19
2023-04-27T20:41:13.664Z,101598.81
2023-04-27T20:44:00.235Z,101595.97
2023-04-27T20:46:45.719Z,101603.88
2023-04-27T20:49:35.164Z,101597.25
2023-04-27T20:52:21.102Z,101595.09
2023-04-27T20:55:06.610Z,101600.63
2023-04-27T20:57:51.885Z,101593.06
2023-04-27T21:00:37.267Z,101609.63
2023-04-27T21:03:22.973Z,101598.28
2023-04-27T21:06:08.903Z,101589.56
2023-04-27T21:08:54.593Z,101604.06
2023-04-27T21:11:40.088Z,101606.78
2023-04-27T21:14:25.594Z,101600.63
2023-04-27T21:17:11.053Z,101600.28
2023-04-27T21:19:58.026Z,101605.81
2023-04-27T21:22:43.458Z,101610.44
2023-04-27T21:25:29.189Z,101610.53
2023-04-27T21:28:14.639Z,101608.06
2023-04-27T21:31:00.287Z,101598.47
2023-04-27T21:33:45.895Z,101599.31
2023-04-27T21:36:32.912Z,101595.59
2023-04-27T21:39:18.472Z,101593.13
2023-04-27T21:42:04.014Z,101593.25
2023-04-27T21:44:49.357Z,101586.50
2023-04-27T21:47:34.762Z,101590.03
2023-04-27T21:50:20.367Z,101584.66
2023-04-27T21:53:05.688Z,101581.00
2023-04-27T21:55:51.196Z,101580.00
2023-04-27T21:58:36.923Z,101578.97
2023-04-27T22:01:27.140Z,101584.09
2023-04-27T22:04:13.102Z,101561.59
2023-04-27T22:06:58.687Z,101575.59
2023-04-27T22:09:44.353Z,101573.78
2023-04-27T22:12:29.781Z,101580.56
2023-04-27T22:15:15.530Z,101566.16
2023-04-27T22:18:01.143Z,101571.72
2023-04-27T22:20:47.241Z,101570.75
2023-04-27T22:23:32.487Z,101564.97
2023-04-27T22:26:18.118Z,101574.03
2023-04-27T22:29:03.850Z,101564.16
2023-04-27T22:31:50.470Z,101563.47
2023-04-27T22:34:37.184Z,101565.41
2023-04-27T22:37:23.040Z,101561.38
2023-04-27T22:40:08.934Z,101559.81
2023-04-27T22:42:55.133Z,101554.06
2023-04-27T22:45:40.574Z,101555.63
2023-04-27T22:48:26.074Z,101554.75
2023-04-27T22:51:12.170Z,101554.44
2023-04-27T22:53:57.807Z,101557.03
2023-04-27T22:56:43.350Z,101539.94
2023-04-27T22:59:28.589Z,101551.81
2023-04-27T23:02:14.380Z,101549.94
2023-04-27T23:04:59.733Z,101545.47
2023-04-27T23:07:46.305Z,101537.38
2023-04-27T23:10:31.997Z,101535.56
2023-04-27T23:13:17.658Z,101545.84
2023-04-27T23:16:03.463Z,101543.75
2023-04-27T23:18:49.191Z,101532.28
2023-04-27T23:21:34.923Z,101542.97
2023-04-27T23:24:20.438Z,101529.03
2023-04-27T23:27:05.827Z,101521.28
2023-04-27T23:29:51.715Z,101528.41
2023-04-27T23:32:37.457Z,101511.28
2023-04-27T23:35:22.717Z,101513.84
2023-04-27T23:38:08.282Z,101512.19
2023-04-27T23:40:53.876Z,101507.50
2023-04-27T23:43:39.534Z,101503.00
2023-04-27T23:46:25.264Z,101506.31
2023-04-27T23:49:10.759Z,101499.25
2023-04-27T23:51:56.308Z,101494.81
2023-04-27T23:54:41.826Z,101489.59
2023-04-27T23:57:27.445Z,101493.03
